Terminal Aerodrome Forecast
Issued by NWS

Home | Current Version | Previous Version | Text Only | Print | Product List | Glossary On
Versions: 1 2 3 4 5 6 7 8 9 10 11 12 13 14 15 16
937
FTAK31 PAJN 240022 AAA
TAFAGY
TAF AMD
PAGY 240022Z 2400/2424 21010KT P6SM VCSH SCT025 OVC040
      TEMPO 2400/2404 3SM -SHSN BKN025
     FM240600 20010KT P6SM BKN040 OVC060
     FM241500 03014KT P6SM BKN070
      AMD LTD TO CLD VIS AND WIND=

USA.gov is the U.S. government's official web portal to all federal, state and local government web resources and services.